Nong Khai, Thailand
Current Conditions -  °F | °C
As of 10:30 AM on Tuesday 23 Dec 2014 (Local Time) from VLVT Reporting Station
Scattered Clouds Scattered Clouds  
Wind Chill: 68°   Ceiling: Unl
Heat Index: 68°   Visibility: 6mi
Dew Point: 54°   Wind: 2mph
Humidity: 60%   Direction: 180°S
Pressure: 30.09"   Gusts: NA
Location:  17.88°N, 102.74°E
Report Text: VLVT 230330Z 18002KT 9999 SCT200 20/12 Q1019 NOSIG
Loading
Personal Weather Stations






























Interactive Weather Map New forecast layout! Learn more

10-Day Weather Forecast

Advertisements
Track Severe Weather on mobile